Sunday, November 18, 2018, 2:36 PM GMT
Back to Local

CYYZ, Toronto Pearson Int'L. Ont.

Location: , , Canada Lat: 43.667
Local Time: 2:36 PM GMT (14:36 GMT) Lon: -79.633
Time Zone: GMT Elev: 567 ft

Show me the last for .
Show Decoded

2018-11-18 14:00 METAR CYYZ 181400Z 00000KT 15SM OVC048 M01/M05 A3030 RMK SC8 SLP270 =
2018-11-18 13:00 METAR CYYZ 181300Z 21003KT 12SM OVC045 M02/M06 A3029 RMK SC8 SLP269 =
2018-11-18 12:00 METAR CYYZ 181200Z CCA 22002KT 15SM OVC048 M02/M06 A3029 RMK SC8 FROIN SLP269 =
2018-11-18 11:00 METAR CYYZ 181100Z 24003KT 15SM BKN050 M03/M06 A3030 RMK SC7 FROIN SLP271 =
2018-11-18 10:00 METAR CYYZ 181000Z 00000KT 15SM BKN050 BKN160 M03/M06 A3030 RMK SC6AC1 FROIN
                 SLP272 =
2018-11-18 09:00 METAR CYYZ 180900Z 34005KT 240V340 15SM BKN050 BKN170 M04/M06 A3031 RMK SC6AC1
                 SLP273 =
2018-11-18 08:00 METAR CYYZ 180800Z 28004KT 15SM BKN052 M04/M07 A3032 RMK SC7 FROIN SLP276 =
2018-11-18 07:00 METAR CYYZ 180700Z 28006KT 15SM FEW050 M05/M07 A3032 RMK SC1 SLP276 =
2018-11-18 06:00 METAR CYYZ 180600Z 22003KT 15SM FEW050 M03/M06 A3032 RMK SC1 SLP275 =
2018-11-18 05:00 METAR CYYZ 180500Z 26005KT 15SM FEW050 M04/M07 A3032 RMK SC1 SLP277 =
2018-11-18 04:00 METAR CYYZ 180400Z 26005KT 15SM FEW050 M04/M07 A3032 RMK SC1 SLP276 =
2018-11-18 03:00 METAR CYYZ 180300Z 28006KT 15SM FEW045 SCT250 M03/M08 A3032 RMK SC2CI2 SLP276 =
2018-11-18 02:00 METAR CYYZ 180200Z 31007KT 15SM BKN047 M01/M06 A3031 RMK SC7 SLP272 =
2018-11-18 01:00 METAR CYYZ 180100Z 28008KT 15SM BKN052 M02/M06 A3030 RMK SC5 SLP269 =
2018-11-18 00:00 METAR CYYZ 180000Z 28007KT 15SM SCT050 M02/M07 A3029 RMK SC3 SLP268 =
2018-11-17 23:00 METAR CYYZ 172300Z 29009KT 15SM SCT060 BKN260 M00/M07 A3027 RMK SC4CI1 SLP259 =
2018-11-17 22:00 METAR CYYZ 172200Z 31012KT 15SM FEW030 BKN058 00/M07 A3025 RMK CU1SC7 CU TR
                 SLP251 =
2018-11-17 21:00 METAR CYYZ 172100Z 31013KT 15SM FEW028 OVC050 01/M06 A3022 RMK CU1SC8 CU TR
                 SLP242 =
2018-11-17 20:00 METAR CYYZ 172000Z 32011KT 15SM FEW028 BKN050 01/M04 A3019 RMK CU1SC6 SLP233 =
2018-11-17 19:27 METAR CYYZ 171927Z 34011G16KT 15SM BKN025 OVC040 01/M04 A3018 RMK CU5SC3 WSHFT
                 1917 VIRGA S SLP230 =
2018-11-17 19:00 METAR CYYZ 171900Z 30012G17KT 15SM FEW033 OVC044 02/M04 A3017 RMK CU2SC6 SLP224
                 =
2018-11-17 18:00 METAR CYYZ 171800Z 29015G20KT 15SM SCT028 OVC042 02/M04 A3015 RMK CU4SC4 SLP219
                 =
2018-11-17 17:00 METAR CYYZ 171700Z 26015KT 15SM FEW030 BKN046 02/M03 A3015 RMK CU1SC7 CU TR
                 SLP218 =
2018-11-17 16:00 METAR CYYZ 171600Z 27011G18KT 15SM FEW030 OVC037 01/M03 A3015 RMK CU1SC8 CU TR
                 SLP220 =
2018-11-17 15:00 METAR CYYZ 171500Z 28015G22KT 15SM OVC035 01/M04 A3014 RMK SC8 SLP217 =

Support USWX by starting your Amazon purchase here.